Login to view Products
 
Monday, February 18, 2019 (05:07 UTC)
Abu Dhabi International Airport
Last Updated: 18-Feb-2019 (05:06Z)
Wind Dir/Speed: WNW at 14 kt
Temperature: 20.1°C
Rel. Humidity: 57 %
Pressure: 1016.1 hPa
Visibility: 10000 m
ACTUALS:
  • METAR OMAA 180500Z 30013KT CAVOK 20/12 Q1015 NOSIG
  • TAF OMAA 180500Z 1806/1912 31014KT CAVOK BECMG 1900/1902 20005KT BECMG 1906/1908 31010KT=
D:\Input Parser\Destinations\Final\05\OMAAL06120500671145145.txt
1